Time;durP1;ratioP1;P1;durP2;ratioP2;P2;SDS_P1;SDS_P2;PMS_P1;PMS_P2;Temp;Humidity;BMP_temperature;BMP_pressure;BME280_temperature;BME280_humidity;BME280_pressure;Samples;Min_cycle;Max_cycle;Signal;HPM_P1;HPM_P2
2023/12/19 00:01:03;;;;;;;4.70;2.47;;;7.30;89.10;;;;;;5066991;28;20601;-80
2023/12/19 00:03:32;;;;;;;2.87;2.67;;;7.20;89.00;;;;;;5064957;28;20657;-82
2023/12/19 00:06:02;;;;;;;2.10;1.90;;;7.20;89.60;;;;;;5063173;28;20214;-81
2023/12/19 00:08:30;;;;;;;1.57;1.47;;;7.20;88.60;;;;;;5061636;28;20209;-81
2023/12/19 00:10:59;;;;;;;1.57;1.47;;;7.20;88.70;;;;;;5061265;28;20237;-81
2023/12/19 00:13:27;;;;;;;8.17;1.43;;;7.20;88.60;;;;;;5061962;28;20292;-81
2023/12/19 00:15:57;;;;;;;2.50;2.30;;;7.10;89.10;;;;;;5065599;28;20198;-80
2023/12/19 00:18:26;;;;;;;1.30;1.20;;;7.10;88.10;;;;;;5059256;28;20629;-82
2023/12/19 00:20:55;;;;;;;2.47;2.27;;;7.00;88.20;;;;;;5072558;28;20207;-80
2023/12/19 00:23:30;;;;;;;5.00;2.40;;;7.00;88.50;;;;;;5074555;28;20245;-82
2023/12/19 00:25:59;;;;;;;3.23;2.43;;;6.90;88.60;;;;;;5077436;28;20215;-82
2023/12/19 00:28:28;;;;;;;4.53;3.80;;;6.90;89.10;;;;;;5073055;28;20287;-81
2023/12/19 00:30:56;;;;;;;2.57;2.37;;;6.90;89.20;;;;;;5073447;28;20218;-82
2023/12/19 00:33:25;;;;;;;2.20;1.70;;;6.80;90.00;;;;;;5075286;28;20201;-82
2023/12/19 00:35:54;;;;;;;1.80;1.40;;;6.90;89.30;;;;;;5072436;28;20201;-81
2023/12/19 00:38:24;;;;;;;3.47;3.17;;;6.80;89.30;;;;;;5082976;28;20234;-81
2023/12/19 00:40:53;;;;;;;0.90;0.87;;;6.80;89.30;;;;;;5071008;28;20233;-81
2023/12/19 00:43:22;;;;;;;2.87;1.90;;;6.90;89.40;;;;;;5076642;28;20212;-81
2023/12/19 00:45:51;;;;;;;2.20;1.87;;;6.80;89.20;;;;;;5071376;28;20222;-81
2023/12/19 00:48:19;;;;;;;4.33;3.33;;;6.80;89.20;;;;;;5069949;28;20213;-81
2023/12/19 00:50:48;;;;;;;5.00;3.40;;;6.80;89.50;;;;;;5057903;28;20240;-82
2023/12/19 00:53:16;;;;;;;5.37;3.13;;;6.80;89.50;;;;;;5063295;28;20205;-81
2023/12/19 00:55:46;;;;;;;3.03;2.63;;;6.80;89.70;;;;;;5069730;28;20566;-81
2023/12/19 00:58:15;;;;;;;3.47;2.37;;;6.80;89.70;;;;;;5061687;28;20225;-82
2023/12/19 01:00:43;;;;;;;2.90;2.70;;;6.70;90.00;;;;;;5066443;28;20643;-81
2023/12/19 01:03:13;;;;;;;3.60;2.43;;;6.70;90.00;;;;;;5071265;28;20349;-81
2023/12/19 01:05:43;;;;;;;2.27;2.07;;;6.70;90.00;;;;;;5061193;28;20197;-81
2023/12/19 01:08:12;;;;;;;2.73;1.83;;;6.70;90.00;;;;;;5076120;28;20649;-81
2023/12/19 01:10:41;;;;;;;2.13;2.03;;;6.70;90.00;;;;;;5068019;28;20212;-81
2023/12/19 01:13:11;;;;;;;1.77;1.67;;;6.70;90.00;;;;;;5071875;28;20278;-82
2023/12/19 01:15:39;;;;;;;2.50;1.73;;;6.70;90.00;;;;;;5065706;28;20577;-80
2023/12/19 01:18:11;;;;;;;1.77;1.67;;;6.60;89.80;;;;;;5080105;28;20541;-81
2023/12/19 01:20:40;;;;;;;2.37;2.17;;;6.70;89.90;;;;;;5070298;28;20206;-81
2023/12/19 01:23:09;;;;;;;1.33;1.23;;;6.70;89.90;;;;;;5072302;28;20592;-81
2023/12/19 01:25:39;;;;;;;1.10;1.00;;;6.60;89.80;;;;;;5068691;28;20216;-81
2023/12/19 01:28:08;;;;;;;3.63;2.37;;;6.70;89.80;;;;;;5071306;28;20198;-83
2023/12/19 01:30:41;;;;;;;3.50;1.57;;;6.70;89.50;;;;;;5076026;28;20204;-83
2023/12/19 01:33:10;;;;;;;1.90;1.67;;;6.60;89.40;;;;;;5072493;28;20604;-82
2023/12/19 01:35:39;;;;;;;1.33;1.23;;;6.70;89.40;;;;;;5082004;28;20233;-83
2023/12/19 01:38:08;;;;;;;1.40;1.30;;;6.70;89.40;;;;;;5070690;28;20257;-82
2023/12/19 01:40:36;;;;;;;2.57;2.37;;;6.70;89.20;;;;;;5063433;28;20194;-82
2023/12/19 01:43:18;;;;;;;2.67;2.00;;;6.70;89.10;;;;;;5072162;28;20193;-82
2023/12/19 01:45:50;;;;;;;0.97;0.97;;;6.70;89.10;;;;;;5070710;28;20291;-81
2023/12/19 01:48:22;;;;;;;1.23;1.20;;;6.60;88.80;;;;;;5072073;28;20201;-82
2023/12/19 01:50:51;;;;;;;4.10;2.50;;;6.60;88.80;;;;;;5067072;28;20356;-81
2023/12/19 01:53:23;;;;;;;3.47;2.70;;;6.70;88.80;;;;;;5064179;28;20231;-82
2023/12/19 01:55:53;;;;;;;1.63;1.50;;;6.60;88.60;;;;;;5058848;28;20197;-82
2023/12/19 01:58:23;;;;;;;1.43;1.23;;;6.60;88.50;;;;;;5076370;28;20206;-83
2023/12/19 02:00:53;;;;;;;2.50;2.27;;;6.60;88.40;;;;;;5076081;28;20297;-82
2023/12/19 02:03:22;;;;;;;2.17;1.97;;;6.60;88.30;;;;;;5070520;28;20236;-82
2023/12/19 02:05:52;;;;;;;1.07;0.70;;;6.60;88.20;;;;;;5072879;28;20204;-82
2023/12/19 02:08:21;;;;;;;16.93;2.53;;;6.60;88.20;;;;;;5069714;28;20196;-81
2023/12/19 02:10:50;;;;;;;3.23;2.30;;;6.50;87.90;;;;;;5070636;28;20213;-81
2023/12/19 02:13:19;;;;;;;4.33;2.20;;;6.50;87.90;;;;;;5072507;28;20286;-80
2023/12/19 02:15:48;;;;;;;2.40;2.17;;;6.40;87.80;;;;;;5073713;28;20196;-81
2023/12/19 02:18:21;;;;;;;1.17;1.13;;;6.50;88.00;;;;;;5076927;28;20195;-81
2023/12/19 02:20:50;;;;;;;1.83;1.73;;;6.40;88.00;;;;;;5074445;28;20240;-81
2023/12/19 02:23:21;;;;;;;2.27;2.07;;;6.40;88.10;;;;;;5075839;28;20665;-81
2023/12/19 02:25:50;;;;;;;3.27;2.97;;;6.40;88.20;;;;;;5075776;28;20210;-82
2023/12/19 02:28:22;;;;;;;1.10;1.07;;;6.40;88.50;;;;;;5077853;28;20201;-81
2023/12/19 02:30:50;;;;;;;2.10;1.77;;;6.30;88.60;;;;;;5073633;28;20194;-81
2023/12/19 02:33:19;;;;;;;3.03;2.73;;;6.30;88.70;;;;;;5074179;28;20252;-81
2023/12/19 02:35:48;;;;;;;2.83;1.67;;;6.30;88.70;;;;;;5073519;28;20209;-82
2023/12/19 02:38:16;;;;;;;3.33;2.40;;;6.30;88.80;;;;;;5077971;28;20205;-81
2023/12/19 02:40:49;;;;;;;2.63;1.50;;;6.40;88.90;;;;;;5085199;28;20442;-81
2023/12/19 02:43:17;;;;;;;3.77;1.43;;;6.40;89.10;;;;;;5086413;28;20228;-81
2023/12/19 02:45:46;;;;;;;2.53;2.33;;;6.40;89.10;;;;;;5071946;28;20197;-81
2023/12/19 02:48:15;;;;;;;2.10;1.97;;;6.40;88.90;;;;;;5076299;28;20205;-81
2023/12/19 02:50:43;;;;;;;7.73;2.00;;;6.40;88.80;;;;;;5076522;28;20205;-82
2023/12/19 02:53:12;;;;;;;2.40;2.20;;;6.40;88.60;;;;;;5079177;28;20224;-81
2023/12/19 02:55:41;;;;;;;2.33;2.13;;;6.40;88.50;;;;;;5068657;28;20198;-81
2023/12/19 02:58:11;;;;;;;1.63;1.53;;;6.30;88.60;;;;;;5082988;28;20205;-82
2023/12/19 03:00:40;;;;;;;1.10;0.93;;;6.40;88.80;;;;;;5074598;28;20203;-81
2023/12/19 03:03:09;;;;;;;1.43;1.33;;;6.30;89.00;;;;;;5074095;28;20199;-81
2023/12/19 03:05:37;;;;;;;1.80;1.70;;;6.30;89.00;;;;;;5072849;28;20212;-81
2023/12/19 03:08:06;;;;;;;2.73;2.50;;;6.30;89.10;;;;;;5067761;28;20209;-81
2023/12/19 03:10:34;;;;;;;2.27;2.10;;;6.30;89.10;;;;;;5086522;28;20691;-81
2023/12/19 03:13:03;;;;;;;2.73;1.93;;;6.30;89.20;;;;;;5073497;28;20691;-81
2023/12/19 03:15:33;;;;;;;3.00;1.90;;;6.30;89.10;;;;;;5075520;28;20254;-81
2023/12/19 03:18:03;;;;;;;1.80;1.67;;;6.30;89.20;;;;;;5073028;28;20233;-82
2023/12/19 03:20:33;;;;;;;3.10;2.00;;;6.30;89.20;;;;;;5073116;28;20209;-82
2023/12/19 03:23:02;;;;;;;1.73;1.63;;;6.30;89.10;;;;;;5073417;28;20658;-82
2023/12/19 03:25:32;;;;;;;1.43;1.37;;;6.30;89.90;;;;;;5075262;28;20636;-81
2023/12/19 03:28:05;;;;;;;3.50;1.60;;;6.30;89.10;;;;;;5079893;28;20200;-82
2023/12/19 03:30:37;;;;;;;1.63;1.50;;;6.30;89.10;;;;;;5075461;28;20206;-81
2023/12/19 03:33:08;;;;;;;1.60;1.30;;;6.30;89.10;;;;;;5070083;28;20220;-81
2023/12/19 03:35:37;;;;;;;3.27;3.00;;;6.30;89.10;;;;;;5072923;28;20201;-83
2023/12/19 03:38:05;;;;;;;1.43;1.33;;;6.40;89.10;;;;;;5072934;28;20199;-82
2023/12/19 03:40:35;;;;;;;9.10;2.80;;;6.30;89.00;;;;;;5073917;28;20220;-81
2023/12/19 03:43:05;;;;;;;1.80;1.70;;;6.30;89.00;;;;;;5079601;28;20538;-81
2023/12/19 03:45:33;;;;;;;0.87;0.87;;;6.30;89.00;;;;;;5074343;28;20219;-80
2023/12/19 03:48:04;;;;;;;1.53;1.40;;;6.30;89.00;;;;;;5074459;28;20292;-80
2023/12/19 03:50:33;;;;;;;1.33;1.23;;;6.30;88.90;;;;;;5074055;28;20205;-81
2023/12/19 03:53:01;;;;;;;2.20;2.00;;;6.30;89.00;;;;;;5070304;28;20226;-82
2023/12/19 03:55:30;;;;;;;2.53;2.00;;;6.30;89.10;;;;;;5071939;28;20561;-82
2023/12/19 03:57:58;;;;;;;2.17;1.77;;;6.40;88.90;;;;;;5075634;28;20213;-81
2023/12/19 04:00:27;;;;;;;5.07;2.47;;;6.40;88.90;;;;;;5071908;28;20244;-82
2023/12/19 04:02:56;;;;;;;1.53;1.43;;;6.40;88.90;;;;;;5067796;28;20669;-81
2023/12/19 04:05:26;;;;;;;1.17;1.17;;;6.40;88.90;;;;;;5070784;28;20208;-83
2023/12/19 04:07:54;;;;;;;3.33;1.70;;;6.40;88.80;;;;;;5061780;28;20199;-82
2023/12/19 04:10:23;;;;;;;2.93;1.80;;;6.40;88.60;;;;;;5072293;28;20198;-81
2023/12/19 04:12:51;;;;;;;0.97;0.97;;;6.40;88.60;;;;;;5068584;28;20815;-80
2023/12/19 04:15:30;;;;;;;2.10;1.93;;;6.40;88.60;;;;;;5076312;28;20296;-83
2023/12/19 04:17:58;;;;;;;2.27;2.13;;;6.40;88.80;;;;;;5077722;28;20618;-81
2023/12/19 04:20:31;;;;;;;3.60;1.83;;;6.40;88.80;;;;;;5072212;28;20199;-82
2023/12/19 04:23:00;;;;;;;1.60;1.43;;;6.40;88.80;;;;;;5072041;28;20293;-82
2023/12/19 04:25:28;;;;;;;0.77;0.77;;;6.50;89.20;;;;;;5075877;28;20201;-81
2023/12/19 04:27:57;;;;;;;3.03;2.30;;;6.50;88.90;;;;;;5074547;28;20412;-82
2023/12/19 04:30:25;;;;;;;2.33;2.13;;;6.50;88.90;;;;;;5070399;28;20202;-81
2023/12/19 04:32:54;;;;;;;4.43;2.60;;;6.50;89.00;;;;;;5070136;28;20721;-81
2023/12/19 04:35:24;;;;;;;0.90;0.90;;;6.60;88.90;;;;;;5073617;28;20222;-81
2023/12/19 04:37:54;;;;;;;2.73;1.70;;;6.60;89.00;;;;;;5064643;28;20210;-81
2023/12/19 04:40:23;;;;;;;2.90;2.63;;;6.60;89.00;;;;;;5077412;28;20206;-81
2023/12/19 04:42:52;;;;;;;2.60;2.40;;;6.60;88.80;;;;;;5072164;28;20205;-81
2023/12/19 04:45:20;;;;;;;2.73;2.53;;;6.60;88.70;;;;;;5080086;28;20201;-81
2023/12/19 04:47:52;;;;;;;2.70;2.07;;;6.60;88.60;;;;;;5071836;28;20740;-82
2023/12/19 04:50:21;;;;;;;6.10;2.80;;;6.60;88.70;;;;;;5076471;28;20197;-81
2023/12/19 04:52:58;;;;;;;4.47;2.90;;;6.60;88.70;;;;;;5073694;28;20206;-82
2023/12/19 04:55:27;;;;;;;2.00;1.80;;;6.60;88.70;;;;;;5078356;28;20285;-81
2023/12/19 04:57:56;;;;;;;1.93;1.83;;;6.60;89.70;;;;;;5074744;28;20208;-82
2023/12/19 05:00:25;;;;;;;4.87;2.80;;;6.60;89.30;;;;;;5070546;28;20714;-81
2023/12/19 05:02:54;;;;;;;3.50;3.20;;;6.50;89.00;;;;;;5076156;28;20653;-81
2023/12/19 05:05:26;;;;;;;3.07;2.57;;;6.50;89.10;;;;;;5070499;28;20657;-80
2023/12/19 05:07:55;;;;;;;1.33;1.23;;;6.50;89.20;;;;;;5066704;28;20209;-81
2023/12/19 05:10:25;;;;;;;2.10;2.00;;;6.50;89.40;;;;;;5070516;28;20199;-84
2023/12/19 05:12:54;;;;;;;1.93;1.83;;;6.60;89.40;;;;;;5069457;28;20554;-82
2023/12/19 05:15:23;;;;;;;3.40;2.50;;;6.60;89.40;;;;;;5059486;28;20320;-82
2023/12/19 05:17:52;;;;;;;1.97;1.77;;;6.60;89.40;;;;;;5046975;28;20231;-81
2023/12/19 05:20:20;;;;;;;2.03;1.63;;;6.60;89.40;;;;;;5077000;28;20194;-82
2023/12/19 05:22:50;;;;;;;2.43;2.23;;;6.60;89.40;;;;;;5069418;28;20228;-82
2023/12/19 05:25:19;;;;;;;1.70;1.60;;;6.60;89.30;;;;;;5068703;28;20205;-81
2023/12/19 05:27:50;;;;;;;2.43;1.77;;;6.60;89.20;;;;;;5065146;28;20213;-81
2023/12/19 05:30:18;;;;;;;1.67;1.57;;;6.60;89.20;;;;;;5071805;28;20341;-82
2023/12/19 05:32:47;;;;;;;1.97;1.87;;;6.60;89.10;;;;;;5074881;28;20778;-81
2023/12/19 05:35:16;;;;;;;6.17;3.90;;;6.60;89.00;;;;;;5075433;28;20223;-81
2023/12/19 05:37:45;;;;;;;1.67;1.57;;;6.60;89.00;;;;;;5073351;28;20205;-81
2023/12/19 05:40:13;;;;;;;3.23;1.93;;;6.60;88.90;;;;;;5070522;28;20201;-81
2023/12/19 05:42:42;;;;;;;1.80;1.70;;;6.60;88.90;;;;;;5069924;28;20271;-82
2023/12/19 05:45:12;;;;;;;1.53;1.43;;;6.60;88.80;;;;;;5071225;28;20193;-82
2023/12/19 05:47:41;;;;;;;2.13;1.70;;;6.60;88.90;;;;;;5072939;28;20197;-82
2023/12/19 05:50:10;;;;;;;2.33;2.13;;;6.60;88.90;;;;;;5072164;28;20648;-82
2023/12/19 05:52:38;;;;;;;2.23;1.93;;;6.60;88.80;;;;;;5066023;28;20240;-82
2023/12/19 05:55:07;;;;;;;3.43;1.93;;;6.60;88.80;;;;;;5069298;28;20258;-82
2023/12/19 05:57:39;;;;;;;3.07;1.50;;;6.60;88.70;;;;;;5064362;28;20211;-83
2023/12/19 06:00:09;;;;;;;1.20;1.13;;;6.60;88.60;;;;;;5069883;28;20221;-82
2023/12/19 06:02:42;;;;;;;1.63;1.53;;;6.70;89.50;;;;;;5071249;28;20217;-81
2023/12/19 06:05:11;;;;;;;1.50;1.40;;;6.70;88.80;;;;;;5075736;28;20232;-83
2023/12/19 06:07:43;;;;;;;2.53;2.27;;;6.70;88.80;;;;;;5071790;28;20702;-85
2023/12/19 06:10:13;;;;;;;9.87;2.83;;;6.70;88.80;;;;;;5074360;28;20201;-82
2023/12/19 06:12:42;;;;;;;3.67;2.57;;;6.80;88.90;;;;;;5072109;28;20210;-81
2023/12/19 06:15:14;;;;;;;3.47;2.87;;;6.80;88.90;;;;;;5073845;28;20629;-82
2023/12/19 06:17:45;;;;;;;5.33;3.13;;;6.80;88.90;;;;;;5071075;28;20210;-81
2023/12/19 06:20:16;;;;;;;1.17;0.90;;;6.90;88.90;;;;;;5081032;28;20200;-80
2023/12/19 06:22:45;;;;;;;1.37;1.33;;;6.90;88.90;;;;;;5068256;28;20210;-82
2023/12/19 06:25:14;;;;;;;3.90;3.03;;;6.90;88.90;;;;;;5077504;28;20201;-81
2023/12/19 06:27:44;;;;;;;1.87;1.67;;;7.00;88.90;;;;;;5071561;28;20212;-81
2023/12/19 06:30:15;;;;;;;1.42;1.33;;;7.00;88.90;;;;;;5067118;28;20829;-82
2023/12/19 06:33:00;;;;;;;3.50;2.57;;;7.00;89.20;;;;;;5067732;28;20273;-82
2023/12/19 06:35:29;;;;;;;4.37;2.53;;;7.00;88.90;;;;;;5069262;28;20221;-83
2023/12/19 06:37:58;;;;;;;2.53;1.30;;;7.10;88.90;;;;;;5074525;28;20208;-81
2023/12/19 06:40:27;;;;;;;5.57;3.20;;;7.10;88.90;;;;;;5070838;28;20710;-82
2023/12/19 06:42:57;;;;;;;2.17;1.70;;;7.20;88.90;;;;;;5074284;28;20202;-82
2023/12/19 06:45:25;;;;;;;3.33;2.50;;;7.20;88.90;;;;;;5077974;28;20630;-81
2023/12/19 06:47:54;;;;;;;4.53;3.23;;;7.30;89.10;;;;;;5074509;28;20197;-82
2023/12/19 06:50:28;;;;;;;2.33;1.53;;;7.40;89.10;;;;;;5075132;28;20198;-82
2023/12/19 06:52:56;;;;;;;2.40;2.17;;;7.40;89.10;;;;;;5073543;28;20228;-82
2023/12/19 06:55:27;;;;;;;1.30;1.20;;;7.50;89.10;;;;;;5069713;28;20716;-82
2023/12/19 06:57:56;;;;;;;2.60;2.40;;;7.60;89.20;;;;;;5077686;28;20206;-83
2023/12/19 07:00:24;;;;;;;3.20;2.97;;;7.70;89.20;;;;;;5072151;28;20226;-82
2023/12/19 07:02:53;;;;;;;1.03;1.03;;;7.80;89.10;;;;;;5068334;28;20199;-82
2023/12/19 07:05:22;;;;;;;2.40;1.93;;;7.80;88.90;;;;;;5072985;28;20206;-83
2023/12/19 07:07:52;;;;;;;4.43;2.63;;;7.90;88.90;;;;;;5071422;28;20198;-83
2023/12/19 07:10:20;;;;;;;3.00;1.70;;;7.90;88.60;;;;;;5068064;28;20194;-83
2023/12/19 07:12:52;;;;;;;4.03;3.23;;;8.00;88.60;;;;;;5076325;28;20202;-82
2023/12/19 07:15:20;;;;;;;2.73;2.53;;;8.00;88.40;;;;;;5072013;28;20719;-84
2023/12/19 07:17:49;;;;;;;4.80;2.17;;;8.10;88.50;;;;;;5076114;28;20217;-82
2023/12/19 07:20:18;;;;;;;3.70;2.87;;;8.10;88.50;;;;;;5067541;28;20292;-84
2023/12/19 07:22:47;;;;;;;2.83;2.07;;;8.20;88.50;;;;;;5071310;28;20198;-85
2023/12/19 07:25:17;;;;;;;2.33;2.13;;;8.30;88.50;;;;;;5078672;28;20737;-85
2023/12/19 07:27:46;;;;;;;4.65;2.05;;;8.30;88.40;;;;;;5085770;28;20440;-84
2023/12/19 07:30:14;;;;;;;2.30;2.00;;;8.30;88.60;;;;;;5074319;28;20241;-85
2023/12/19 07:32:43;;;;;;;6.13;2.70;;;8.40;88.70;;;;;;5073295;28;20580;-84
2023/12/19 07:35:15;;;;;;;3.53;3.23;;;8.50;88.70;;;;;;5074154;28;20544;-85
2023/12/19 07:37:44;;;;;;;3.67;3.03;;;8.50;88.60;;;;;;5069228;28;20694;-84
2023/12/19 07:40:17;;;;;;;2.93;2.63;;;8.60;88.50;;;;;;5070989;28;20687;-83
2023/12/19 07:42:45;;;;;;;3.60;2.37;;;8.70;88.50;;;;;;5071402;28;20234;-85
2023/12/19 07:45:15;;;;;;;3.53;3.10;;;8.80;88.40;;;;;;5074607;28;20617;-85
2023/12/19 07:47:44;;;;;;;2.40;2.20;;;8.90;88.40;;;;;;5072329;28;20207;-85
2023/12/19 07:50:13;;;;;;;3.63;3.27;;;9.00;88.00;;;;;;5072648;28;20217;-85
2023/12/19 07:52:42;;;;;;;6.17;3.87;;;9.10;88.00;;;;;;5074823;28;20713;-85
2023/12/19 07:55:11;;;;;;;2.90;2.40;;;9.20;88.00;;;;;;5081004;28;20276;-85
2023/12/19 07:57:41;;;;;;;6.33;3.00;;;9.30;87.90;;;;;;5081541;28;20206;-86
2023/12/19 08:00:12;;;;;;;5.43;3.10;;;9.40;87.70;;;;;;5074269;28;20222;-86
2023/12/19 08:02:42;;;;;;;3.67;2.27;;;9.40;87.70;;;;;;5070791;28;20194;-85
2023/12/19 08:05:12;;;;;;;5.50;2.80;;;9.50;87.70;;;;;;5053007;28;20214;-85
2023/12/19 08:07:41;;;;;;;6.47;3.07;;;9.60;87.50;;;;;;5069921;28;20289;-85
2023/12/19 08:10:10;;;;;;;2.93;2.63;;;9.70;87.40;;;;;;5069571;28;20684;-85
2023/12/19 08:12:40;;;;;;;3.53;3.23;;;9.70;87.20;;;;;;5081565;28;20217;-86
2023/12/19 08:15:10;;;;;;;1.73;1.37;;;9.80;87.20;;;;;;5060864;28;20681;-86
2023/12/19 08:17:41;;;;;;;3.40;2.87;;;9.80;87.20;;;;;;5078477;28;20599;-88
2023/12/19 08:20:10;;;;;;;3.50;2.40;;;9.80;87.20;;;;;;5074798;28;20221;-86
2023/12/19 08:22:39;;;;;;;4.30;2.43;;;9.90;87.10;;;;;;5075391;28;20231;-87
2023/12/19 08:25:08;;;;;;;3.57;3.07;;;10.00;87.20;;;;;;5075081;28;20199;-87
2023/12/19 08:27:37;;;;;;;3.00;2.63;;;10.00;87.00;;;;;;5074067;28;20214;-87
2023/12/19 08:30:09;;;;;;;2.30;1.67;;;10.00;86.70;;;;;;5071069;28;20237;-87
2023/12/19 08:32:37;;;;;;;4.53;4.00;;;10.10;86.80;;;;;;5078551;28;20199;-87
2023/12/19 08:35:07;;;;;;;3.30;2.57;;;10.20;86.40;;;;;;5072086;28;20229;-87
2023/12/19 08:37:36;;;;;;;2.90;2.70;;;10.20;86.70;;;;;;5068746;28;20210;-87
2023/12/19 08:40:06;;;;;;;4.23;2.33;;;10.30;86.80;;;;;;5074123;28;20270;-89
2023/12/19 08:42:35;;;;;;;3.43;1.67;;;10.30;86.70;;;;;;5075245;28;20213;-88
2023/12/19 08:45:06;;;;;;;5.60;3.20;;;10.40;86.60;;;;;;5073918;28;20277;-86
2023/12/19 08:47:35;;;;;;;6.27;3.97;;;10.40;86.30;;;;;;5079824;28;20275;-84
2023/12/19 08:50:07;;;;;;;2.87;2.67;;;10.50;86.50;;;;;;5072554;28;20199;-84
2023/12/19 08:52:38;;;;;;;2.57;2.37;;;10.60;86.60;;;;;;5069743;28;20233;-83
2023/12/19 08:55:08;;;;;;;2.23;1.63;;;10.60;86.10;;;;;;5078964;28;20253;-83
2023/12/19 08:57:39;;;;;;;2.13;1.60;;;10.70;86.10;;;;;;5083607;28;20205;-85
2023/12/19 09:00:13;;;;;;;5.03;3.57;;;10.70;86.00;;;;;;5083219;28;20286;-85
2023/12/19 09:02:42;;;;;;;3.97;3.10;;;10.80;85.80;;;;;;5075167;28;20213;-84
2023/12/19 09:05:12;;;;;;;5.03;2.70;;;10.80;85.50;;;;;;5077515;28;20210;-84
2023/12/19 09:07:41;;;;;;;10.23;4.40;;;10.90;85.90;;;;;;5080464;28;20197;-85
2023/12/19 09:10:13;;;;;;;2.37;1.63;;;10.90;85.80;;;;;;5079793;28;20208;-85
2023/12/19 09:12:42;;;;;;;10.37;3.10;;;11.00;85.90;;;;;;5073211;28;20206;-84
2023/12/19 09:15:13;;;;;;;3.77;3.33;;;11.10;85.20;;;;;;5075758;28;20198;-85
2023/12/19 09:17:41;;;;;;;2.40;2.17;;;11.10;84.40;;;;;;5078281;28;20285;-83
2023/12/19 09:20:11;;;;;;;2.87;2.60;;;11.10;83.80;;;;;;5077902;28;20321;-83
2023/12/19 09:22:40;;;;;;;6.07;4.20;;;11.20;83.60;;;;;;5076926;28;20289;-83
2023/12/19 09:25:14;;;;;;;4.10;3.70;;;11.20;82.40;;;;;;5069737;28;20207;-83
2023/12/19 09:27:44;;;;;;;3.47;3.17;;;11.20;82.40;;;;;;5078239;28;20298;-83
2023/12/19 09:30:16;;;;;;;5.07;3.50;;;11.20;82.80;;;;;;5073704;28;20194;-83
2023/12/19 09:32:45;;;;;;;6.57;3.30;;;11.20;82.10;;;;;;5081601;28;20691;-83
2023/12/19 09:35:16;;;;;;;3.83;3.43;;;11.30;82.20;;;;;;5071890;28;20220;-83
2023/12/19 09:37:46;;;;;;;2.40;2.20;;;11.30;82.10;;;;;;5073237;28;20293;-82
2023/12/19 09:40:17;;;;;;;4.63;3.30;;;11.30;82.10;;;;;;5072352;28;20671;-83
2023/12/19 09:42:46;;;;;;;7.90;3.93;;;11.30;81.30;;;;;;5071075;28;20202;-84
2023/12/19 09:45:16;;;;;;;8.23;3.73;;;11.40;81.50;;;;;;5081939;28;20217;-87
2023/12/19 09:47:59;;;;;;;2.90;2.30;;;11.40;81.20;;;;;;5073676;28;20570;-83
2023/12/19 09:50:29;;;;;;;5.40;3.33;;;11.40;80.90;;;;;;5076515;28;20209;-83
2023/12/19 09:52:59;;;;;;;5.67;2.67;;;11.40;80.70;;;;;;5073449;28;20198;-84
2023/12/19 09:55:29;;;;;;;3.72;2.85;;;11.50;80.40;;;;;;5070811;28;20952;-85
2023/12/19 09:58:00;;;;;;;19.37;3.67;;;11.40;80.60;;;;;;5071721;28;20238;-84
2023/12/19 10:00:34;;;;;;;5.57;3.93;;;11.50;80.10;;;;;;5069364;28;20755;-84
2023/12/19 10:03:04;;;;;;;7.53;5.30;;;11.50;80.10;;;;;;5078044;28;20228;-81
2023/12/19 10:05:32;;;;;;;7.00;3.97;;;11.50;80.00;;;;;;5079442;28;20198;-83
2023/12/19 10:08:01;;;;;;;3.47;3.10;;;11.50;80.10;;;;;;5073884;28;20207;-85
2023/12/19 10:10:50;;;;;;;7.63;4.97;;;11.50;79.70;;;;;;5070848;28;20333;-84
2023/12/19 10:13:31;;;;;;;9.23;4.20;;;11.60;79.30;;;;;;5071314;28;20209;-82
2023/12/19 10:16:03;;;;;;;3.07;1.57;;;11.60;79.10;;;;;;5071147;28;20187;-83
2023/12/19 10:18:55;;;;;;;5.90;4.10;;;11.60;79.90;;;;;;5071330;28;20537;-83
2023/12/19 10:21:28;;;;;;;5.83;3.50;;;11.60;78.40;;;;;;5074120;28;20283;-82
2023/12/19 10:24:08;;;;;;;3.10;2.80;;;11.70;78.30;;;;;;5073624;28;20202;-83
2023/12/19 10:26:37;;;;;;;2.40;2.20;;;11.70;78.10;;;;;;5069001;28;20198;-86
2023/12/19 10:29:05;;;;;;;4.20;3.77;;;11.80;78.40;;;;;;5080746;28;20202;-83
2023/12/19 10:31:38;;;;;;;2.33;2.17;;;11.80;77.80;;;;;;5078953;28;20232;-84
2023/12/19 10:34:07;;;;;;;3.73;3.33;;;11.80;77.80;;;;;;5085894;28;20214;-84
2023/12/19 10:36:36;;;;;;;3.27;2.97;;;11.70;77.70;;;;;;5079534;28;20228;-86
2023/12/19 10:39:07;;;;;;;3.30;2.60;;;11.80;77.10;;;;;;5077320;28;20281;-85
2023/12/19 10:41:37;;;;;;;3.77;2.83;;;11.80;77.10;;;;;;5074940;28;20262;-84
2023/12/19 10:44:08;;;;;;;3.83;2.77;;;11.80;77.00;;;;;;5077784;28;20198;-84
2023/12/19 10:46:39;;;;;;;7.10;3.87;;;11.80;76.10;;;;;;5084710;28;20193;-82
2023/12/19 10:49:08;;;;;;;2.53;2.13;;;11.80;76.40;;;;;;5067217;28;20197;-81
2023/12/19 10:51:41;;;;;;;2.83;2.43;;;11.80;77.10;;;;;;5075298;28;20201;-83
2023/12/19 10:54:11;;;;;;;2.70;2.50;;;11.90;77.40;;;;;;5075806;28;20311;-81
2023/12/19 10:56:54;;;;;;;3.90;2.30;;;11.90;77.20;;;;;;5071394;28;20251;-81
2023/12/19 10:59:31;;;;;;;7.93;3.70;;;11.90;77.20;;;;;;5068893;28;20218;-83
2023/12/19 11:02:06;;;;;;;7.23;3.30;;;12.00;77.50;;;;;;5074671;28;20299;-81
2023/12/19 11:04:42;;;;;;;10.00;4.97;;;12.00;77.90;;;;;;5070073;28;20205;-82
2023/12/19 11:07:16;;;;;;;4.90;2.83;;;12.10;78.00;;;;;;5073623;28;20293;-85
2023/12/19 11:09:48;;;;;;;2.50;2.30;;;12.20;77.30;;;;;;5074595;28;20318;-84
2023/12/19 11:12:18;;;;;;;8.70;5.60;;;12.20;77.20;;;;;;5072532;28;20203;-84
2023/12/19 11:14:49;;;;;;;7.40;4.27;;;12.20;76.70;;;;;;5073663;28;20638;-84
2023/12/19 11:17:26;;;;;;;2.23;2.03;;;12.30;76.60;;;;;;5072840;28;20240;-82
2023/12/19 11:20:03;;;;;;;7.77;3.47;;;12.30;76.70;;;;;;5073347;28;20199;-80
2023/12/19 11:22:37;;;;;;;3.73;2.97;;;12.30;77.70;;;;;;5077603;28;20566;-82
2023/12/19 11:25:16;;;;;;;9.67;4.43;;;12.40;76.70;;;;;;5074896;28;20190;-83
2023/12/19 11:27:59;;;;;;;3.53;2.57;;;12.40;76.30;;;;;;5072125;28;20640;-82
2023/12/19 11:30:35;;;;;;;4.60;2.07;;;12.40;76.00;;;;;;5067733;28;20496;-81
2023/12/19 11:33:07;;;;;;;6.10;2.00;;;12.40;75.40;;;;;;5074621;28;20229;-80
2023/12/19 11:35:36;;;;;;;5.80;3.30;;;12.50;75.90;;;;;;5073971;28;20206;-83
2023/12/19 11:38:29;;;;;;;2.43;1.87;;;12.50;75.20;;;;;;5073896;28;20621;-82
2023/12/19 11:40:58;;;;;;;4.50;2.73;;;12.50;74.90;;;;;;5073576;28;20564;-82
2023/12/19 11:43:55;;;;;;;6.57;4.17;;;12.60;74.60;;;;;;5067866;28;20199;-83
2023/12/19 11:46:26;;;;;;;5.37;2.00;;;12.70;74.00;;;;;;5059408;28;20304;-86
2023/12/19 11:48:58;;;;;;;2.00;1.43;;;12.70;74.30;;;;;;5072700;28;20205;-85
2023/12/19 11:51:58;;;;;;;3.17;2.90;;;12.70;74.10;;;;;;5072422;28;20203;-86
2023/12/19 11:54:29;;;;;;;4.10;2.20;;;12.80;74.40;;;;;;5078640;28;20206;-86
2023/12/19 11:57:02;;;;;;;6.70;2.07;;;12.80;74.00;;;;;;5073218;28;20203;-85
2023/12/19 11:59:47;;;;;;;0.60;0.60;;;12.90;73.80;;;;;;5073437;28;20728;-85
2023/12/19 12:02:35;;;;;;;1.77;1.60;;;12.90;72.80;;;;;;5073889;28;20225;-86
2023/12/19 12:05:12;;;;;;;2.53;2.03;;;12.90;72.70;;;;;;5078874;28;20197;-84
2023/12/19 12:07:48;;;;;;;1.90;1.50;;;13.00;73.30;;;;;;5079803;28;20201;-82
2023/12/19 12:10:20;;;;;;;1.67;1.57;;;13.00;73.00;;;;;;5075103;28;20194;-84
2023/12/19 12:12:49;;;;;;;3.27;1.63;;;13.00;72.90;;;;;;5086126;28;20209;-84
2023/12/19 12:15:21;;;;;;;4.80;2.60;;;13.10;73.00;;;;;;5064705;28;20194;-83
2023/12/19 12:17:50;;;;;;;2.50;1.97;;;13.10;72.80;;;;;;5079673;28;20572;-84
2023/12/19 12:20:26;;;;;;;1.43;1.33;;;13.10;73.20;;;;;;5071632;28;20286;-86
2023/12/19 12:22:55;;;;;;;2.33;1.70;;;13.20;73.20;;;;;;5081818;28;20190;-85
2023/12/19 12:25:24;;;;;;;2.93;1.63;;;13.20;72.80;;;;;;5077970;28;20646;-90
2023/12/19 12:28:07;;;;;;;0.90;0.90;;;13.30;72.90;;;;;;5075695;28;20201;-91
2023/12/19 12:30:36;;;;;;;3.30;1.03;;;13.20;73.10;;;;;;5085195;28;20206;-89
2023/12/19 12:33:07;;;;;;;1.30;1.20;;;13.30;72.50;;;;;;5082756;28;20198;-86
2023/12/19 12:35:38;;;;;;;3.50;2.77;;;13.30;72.20;;;;;;5071988;28;20198;-86
2023/12/19 12:38:11;;;;;;;2.37;2.17;;;13.30;71.90;;;;;;5076621;28;20213;-86
2023/12/19 12:40:59;;;;;;;1.60;1.30;;;13.30;72.00;;;;;;5077151;28;20191;-85
2023/12/19 12:43:38;;;;;;;1.13;1.13;;;13.30;72.60;;;;;;5074117;28;20575;-86
2023/12/19 12:46:12;;;;;;;2.90;1.97;;;13.30;72.70;;;;;;5078698;28;20197;-86
2023/12/19 12:48:44;;;;;;;2.23;1.93;;;13.40;73.30;;;;;;5076385;28;20194;-85
2023/12/19 12:51:18;;;;;;;3.37;2.83;;;13.40;73.60;;;;;;5077105;28;20559;-87
2023/12/19 12:53:54;;;;;;;1.70;1.33;;;13.40;74.00;;;;;;5074330;28;20296;-87
2023/12/19 12:56:29;;;;;;;1.30;1.20;;;13.50;74.30;;;;;;5080094;28;20720;-87
2023/12/19 12:59:03;;;;;;;2.87;1.90;;;13.60;75.20;;;;;;5080840;28;20258;-89
2023/12/19 13:01:32;;;;;;;1.77;1.10;;;13.80;76.00;;;;;;5076613;28;20204;-87
2023/12/19 13:04:02;;;;;;;5.77;2.87;;;13.80;74.20;;;;;;5072407;28;20683;-89
2023/12/19 13:06:32;;;;;;;1.30;1.07;;;14.00;74.70;;;;;;5074300;28;20202;-88
2023/12/19 13:09:09;;;;;;;3.87;1.83;;;14.40;76.20;;;;;;5073744;28;20198;-88
2023/12/19 13:11:42;;;;;;;3.97;1.70;;;14.90;77.40;;;;;;5065987;28;20240;-84